createdAt,value
2019-03-19T00:02:57.558Z,99723.00
2019-03-19T00:08:00.849Z,99722.50
2019-03-19T00:13:04.189Z,99723.80
2019-03-19T00:18:07.200Z,99727.07
2019-03-19T00:23:10.716Z,99740.13
2019-03-19T00:28:14.125Z,99743.25
2019-03-19T00:33:17.297Z,99747.04
2019-03-19T00:38:20.722Z,99752.36
2019-03-19T00:43:23.818Z,99749.87
2019-03-19T00:48:26.943Z,99756.07
2019-03-19T00:53:29.933Z,99757.44
2019-03-19T00:58:32.906Z,99756.34
2019-03-19T01:03:36.060Z,99751.55
2019-03-19T01:08:39.468Z,99753.83
2019-03-19T01:13:42.687Z,99750.45
2019-03-19T01:18:45.758Z,99758.91
2019-03-19T01:23:49.113Z,99759.56
2019-03-19T01:28:52.317Z,99763.19
2019-03-19T01:33:55.519Z,99775.60
2019-03-19T01:38:58.689Z,99771.69
2019-03-19T01:44:01.656Z,99780.18
2019-03-19T01:49:04.938Z,99774.02
2019-03-19T01:54:07.971Z,99779.12
2019-03-19T01:59:11.102Z,99781.53
2019-03-19T02:04:14.104Z,99785.94
2019-03-19T02:09:17.266Z,99787.20
2019-03-19T02:14:20.377Z,99798.09
2019-03-19T02:19:23.434Z,99798.75
2019-03-19T02:24:26.707Z,99805.16
2019-03-19T02:29:29.696Z,99806.35
2019-03-19T02:34:32.663Z,99805.65
2019-03-19T02:39:35.656Z,99811.86
2019-03-19T02:44:38.625Z,99816.77
2019-03-19T02:49:41.839Z,99834.13
2019-03-19T02:54:44.908Z,99838.75
2019-03-19T02:59:48.165Z,99842.38
2019-03-19T03:04:51.141Z,99847.74
2019-03-19T03:09:54.093Z,99853.39
2019-03-19T03:14:57.174Z,99856.02
2019-03-19T03:20:00.315Z,99860.64
2019-03-19T03:25:05.640Z,99862.72
2019-03-19T03:30:10.487Z,99856.13
2019-03-19T03:35:13.687Z,99861.28
2019-03-19T03:40:16.769Z,99863.66
2019-03-19T03:45:20.189Z,99874.38
2019-03-19T03:50:23.245Z,99869.87
2019-03-19T03:55:26.354Z,99875.89
2019-03-19T04:00:29.753Z,99884.91
2019-03-19T04:05:32.729Z,99892.58
2019-03-19T04:10:35.866Z,99890.92
2019-03-19T04:15:38.972Z,99893.63
2019-03-19T04:20:42.081Z,99913.99
2019-03-19T04:25:45.286Z,99915.06
2019-03-19T04:30:48.503Z,99918.20
2019-03-19T04:35:51.913Z,99929.65
2019-03-19T04:40:55.029Z,99921.19
2019-03-19T04:45:58.319Z,99930.64
2019-03-19T04:51:01.380Z,99946.91
2019-03-19T04:56:04.415Z,99955.02
2019-03-19T05:01:07.374Z,99965.70
2019-03-19T05:06:10.494Z,99972.92
2019-03-19T05:11:13.858Z,99979.92
2019-03-19T05:16:16.996Z,99978.37
2019-03-19T05:21:20.253Z,99987.77
2019-03-19T05:26:23.406Z,99993.23
2019-03-19T05:31:26.541Z,99999.00
2019-03-19T05:36:29.505Z,100012.14
2019-03-19T05:41:32.485Z,100022.09
2019-03-19T05:46:35.883Z,100026.38
2019-03-19T05:51:38.929Z,100039.70
2019-03-19T05:56:42.028Z,100042.53
2019-03-19T06:01:45.142Z,100043.11
2019-03-19T06:06:48.120Z,100043.31
2019-03-19T06:11:51.250Z,100048.21
2019-03-19T06:16:54.593Z,100058.22
2019-03-19T06:21:57.508Z,100054.13
2019-03-19T06:27:00.708Z,100063.91
2019-03-19T06:32:03.732Z,100069.13
2019-03-19T06:37:06.843Z,100086.62
2019-03-19T06:42:09.906Z,100086.88
2019-03-19T06:47:13.047Z,100085.13
2019-03-19T06:52:16.026Z,100088.36
2019-03-19T06:57:19.282Z,100088.52
2019-03-19T07:02:22.580Z,100099.20
2019-03-19T07:07:25.843Z,100099.58
2019-03-19T07:12:29.173Z,100099.34
2019-03-19T07:17:32.229Z,100102.00
2019-03-19T07:22:35.733Z,100111.69
2019-03-19T07:27:38.965Z,100109.70
2019-03-19T07:32:42.001Z,100104.47
2019-03-19T07:37:45.140Z,100109.39
2019-03-19T07:42:48.575Z,100113.34
2019-03-19T07:47:52.046Z,100115.63
2019-03-19T07:52:55.051Z,100108.38
2019-03-19T07:57:58.120Z,100120.48
2019-03-19T08:03:01.501Z,100126.29
2019-03-19T08:08:04.945Z,100125.86
2019-03-19T08:13:08.031Z,100132.83
2019-03-19T08:18:11.130Z,100142.71
2019-03-19T08:23:14.230Z,100146.88
2019-03-19T08:28:17.366Z,100153.16
2019-03-19T08:33:20.323Z,100153.95
2019-03-19T08:38:23.314Z,100160.09
2019-03-19T08:43:26.474Z,100154.89
2019-03-19T08:48:29.707Z,100157.09
2019-03-19T08:53:33.194Z,100154.33
2019-03-19T08:58:37.275Z,100148.70
2019-03-19T09:03:40.237Z,100149.14
2019-03-19T09:08:43.342Z,100165.38
2019-03-19T09:13:46.787Z,100171.59
2019-03-19T09:18:49.865Z,100171.10
2019-03-19T09:23:52.958Z,100184.22
2019-03-19T09:28:56.042Z,100193.17
2019-03-19T09:33:59.032Z,100195.73
2019-03-19T09:39:02.509Z,100193.89
2019-03-19T09:44:05.676Z,100192.81
2019-03-19T09:49:08.769Z,100181.41
2019-03-19T09:54:11.817Z,100191.67
2019-03-19T09:59:14.872Z,100192.89
2019-03-19T10:04:17.946Z,100186.00
2019-03-19T10:09:20.967Z,100183.72
2019-03-19T10:14:24.099Z,100179.89
2019-03-19T10:19:27.368Z,100184.56
2019-03-19T10:24:30.354Z,100178.70
2019-03-19T10:29:38.310Z,100177.47
2019-03-19T10:34:38.378Z,100173.91
2019-03-19T10:39:41.325Z,100180.50
2019-03-19T10:44:44.420Z,100190.98
2019-03-19T10:49:47.652Z,100182.54
2019-03-19T10:54:50.747Z,100190.94
2019-03-19T11:00:05.021Z,100185.33
2019-03-19T11:05:09.818Z,100193.02
2019-03-19T11:10:13.443Z,100193.88
2019-03-19T11:15:17.149Z,100180.78
2019-03-19T11:20:21.065Z,100179.98
2019-03-19T11:25:24.502Z,100185.20
2019-03-19T11:30:27.609Z,100169.53
2019-03-19T11:35:31.127Z,100173.06
2019-03-19T11:40:34.192Z,100167.00
2019-03-19T11:45:37.423Z,100170.13
2019-03-19T11:50:40.556Z,100171.81
2019-03-19T11:55:43.635Z,100157.32
2019-03-19T12:00:49.992Z,100155.06
2019-03-19T12:05:53.090Z,100166.17
2019-03-19T12:10:56.172Z,100167.12
2019-03-19T12:15:59.374Z,100188.08
2019-03-19T12:21:02.660Z,100180.55
2019-03-19T12:26:05.892Z,100195.47
2019-03-19T12:31:09.029Z,100195.47
2019-03-19T12:36:12.013Z,100193.41
2019-03-19T12:41:15.323Z,100185.06
2019-03-19T12:46:18.306Z,100174.84
2019-03-19T12:51:21.338Z,100172.14
2019-03-19T12:56:24.608Z,100175.20
2019-03-19T13:01:28.634Z,100183.37
2019-03-19T13:06:31.834Z,100186.00
2019-03-19T13:11:34.932Z,100188.91
2019-03-19T13:16:37.941Z,100185.64
2019-03-19T13:21:41.100Z,100180.85
2019-03-19T13:26:44.173Z,100178.66
2019-03-19T13:31:47.206Z,100178.36
2019-03-19T13:36:50.340Z,100183.48
2019-03-19T13:41:53.325Z,100182.13
2019-03-19T13:46:56.329Z,100181.11
2019-03-19T13:51:59.299Z,100185.98
2019-03-19T13:57:02.713Z,100175.31
2019-03-19T14:02:05.752Z,100183.10
2019-03-19T14:07:09.130Z,100189.13
2019-03-19T14:12:12.291Z,100190.26
2019-03-19T14:17:15.453Z,100200.19
2019-03-19T14:22:18.432Z,100205.12
2019-03-19T14:27:21.665Z,100218.38
2019-03-19T14:32:24.695Z,100220.25
2019-03-19T14:37:27.935Z,100218.23
2019-03-19T14:42:31.049Z,100212.26
2019-03-19T14:47:34.336Z,100217.38
2019-03-19T14:52:37.337Z,100224.23
2019-03-19T14:57:40.295Z,100223.23
2019-03-19T15:02:43.351Z,100226.69
2019-03-19T15:07:46.536Z,100230.30
2019-03-19T15:12:49.849Z,100229.02
2019-03-19T15:17:53.425Z,100245.34
2019-03-19T15:22:56.488Z,100244.74
2019-03-19T15:27:59.695Z,100249.70
2019-03-19T15:33:02.810Z,100252.84
2019-03-19T15:38:06.107Z,100264.30
2019-03-19T15:43:09.101Z,100261.45
2019-03-19T15:48:12.058Z,100266.97
2019-03-19T15:53:15.136Z,100272.11
2019-03-19T15:58:18.247Z,100278.55
2019-03-19T16:03:21.436Z,100286.57
2019-03-19T16:08:24.745Z,100292.14
2019-03-19T16:13:27.933Z,100300.92
2019-03-19T16:18:30.962Z,100305.56
2019-03-19T16:23:34.088Z,100316.05
2019-03-19T16:28:37.368Z,100313.69
2019-03-19T16:33:40.413Z,100324.58
2019-03-19T16:38:43.515Z,100325.22
2019-03-19T16:43:46.497Z,100334.67
2019-03-19T16:48:49.804Z,100349.11
2019-03-19T16:53:52.943Z,100356.16
2019-03-19T16:58:56.039Z,100368.83
2019-03-19T17:03:59.249Z,100375.17
2019-03-19T17:09:02.658Z,100378.02
2019-03-19T17:14:05.823Z,100389.55
2019-03-19T17:19:08.841Z,100404.44
2019-03-19T17:24:11.926Z,100399.02
2019-03-19T17:29:15.211Z,100418.16
2019-03-19T17:34:18.834Z,100427.56
2019-03-19T17:39:21.880Z,100432.95
2019-03-19T17:44:25.149Z,100435.15
2019-03-19T17:49:28.258Z,100438.47
2019-03-19T17:54:31.288Z,100443.02
2019-03-19T17:59:34.341Z,100450.92
2019-03-19T18:04:37.593Z,100449.11
2019-03-19T18:09:40.891Z,100456.69
2019-03-19T18:14:44.044Z,100464.23
2019-03-19T18:19:47.310Z,100464.40
2019-03-19T18:24:50.428Z,100469.81
2019-03-19T18:29:55.438Z,100478.54
2019-03-19T18:34:58.381Z,100486.72
2019-03-19T18:40:01.547Z,100491.06
2019-03-19T18:45:05.581Z,100500.27
2019-03-19T18:50:11.418Z,100508.86
2019-03-19T18:55:14.787Z,100512.94
2019-03-19T19:00:18.173Z,100515.42
2019-03-19T19:05:21.167Z,100521.00
2019-03-19T19:10:24.335Z,100524.53
2019-03-19T19:15:27.650Z,100532.48
2019-03-19T19:20:30.708Z,100530.75
2019-03-19T19:25:33.727Z,100541.77
2019-03-19T19:30:36.966Z,100542.37
2019-03-19T19:35:40.200Z,100557.34
2019-03-19T19:40:43.293Z,100550.39
2019-03-19T19:45:46.423Z,100541.14
2019-03-19T19:50:49.714Z,100554.28
2019-03-19T19:55:52.956Z,100557.65
2019-03-19T20:00:56.338Z,100555.14
2019-03-19T20:05:59.470Z,100552.93
2019-03-19T20:11:02.668Z,100561.00
2019-03-19T20:16:05.987Z,100565.56
2019-03-19T20:21:09.176Z,100575.47
2019-03-19T20:26:12.488Z,100579.30
2019-03-19T20:31:15.818Z,100582.30
2019-03-19T20:36:18.907Z,100587.91
2019-03-19T20:41:21.964Z,100591.61
2019-03-19T20:46:25.134Z,100594.75
2019-03-19T20:51:28.252Z,100597.74
2019-03-19T20:56:31.348Z,100597.54
2019-03-19T21:01:34.441Z,100604.23
2019-03-19T21:06:37.669Z,100605.98
2019-03-19T21:11:40.759Z,100608.89
2019-03-19T21:16:43.809Z,100603.58
2019-03-19T21:21:46.959Z,100611.49
2019-03-19T21:26:50.145Z,100624.06
2019-03-19T21:31:53.217Z,100618.91
2019-03-19T21:36:56.363Z,100629.36
2019-03-19T21:41:59.597Z,100628.50
2019-03-19T21:47:03.827Z,100638.22
2019-03-19T21:52:06.824Z,100641.16
2019-03-19T21:57:09.778Z,100644.24
2019-03-19T22:02:12.756Z,100645.75
2019-03-19T22:07:15.894Z,100637.94
2019-03-19T22:12:18.982Z,100645.15
2019-03-19T22:17:22.105Z,100642.02
2019-03-19T22:22:25.234Z,100656.67
2019-03-19T22:27:28.258Z,100654.16
2019-03-19T22:32:31.960Z,100655.22
2019-03-19T22:37:35.038Z,100654.84
2019-03-19T22:42:38.627Z,100661.20
2019-03-19T22:47:41.886Z,100669.64
2019-03-19T22:52:45.413Z,100667.11
2019-03-19T22:57:48.445Z,100671.33
2019-03-19T23:02:51.770Z,100670.48
2019-03-19T23:07:55.122Z,100679.98
2019-03-19T23:12:58.232Z,100686.17
2019-03-19T23:18:01.200Z,100694.09
2019-03-19T23:23:04.412Z,100708.16
2019-03-19T23:28:07.662Z,100709.97
2019-03-19T23:38:20.287Z,100717.52
2019-03-19T23:43:23.438Z,100723.70
2019-03-19T23:48:26.700Z,100724.44
2019-03-19T23:53:29.858Z,100724.60
2019-03-19T23:58:32.994Z,100729.66
